createdAt,value
2023-03-24T00:01:44.134Z,5.68
2023-03-24T00:04:10.749Z,4.47
2023-03-24T00:06:37.312Z,4.90
2023-03-24T00:09:04.459Z,6.03
2023-03-24T00:11:34.406Z,8.45
2023-03-24T00:14:02.638Z,6.55
2023-03-24T00:16:29.242Z,3.85
2023-03-24T00:18:55.795Z,8.27
2023-03-24T00:21:27.060Z,4.07
2023-03-24T00:23:58.772Z,4.20
2023-03-24T00:26:25.769Z,8.15
2023-03-24T00:28:52.536Z,4.53
2023-03-24T00:31:19.236Z,8.65
2023-03-24T00:33:50.770Z,8.68
2023-03-24T00:36:21.094Z,5.70
2023-03-24T00:38:48.478Z,6.32
2023-03-24T00:41:17.835Z,3.60
2023-03-24T00:43:44.433Z,6.00
2023-03-24T00:46:12.161Z,6.13
2023-03-24T00:48:41.890Z,8.38
2023-03-24T00:51:11.196Z,5.05
2023-03-24T00:53:43.502Z,5.68
2023-03-24T00:56:11.806Z,3.45
2023-03-24T00:58:38.464Z,4.38
2023-03-24T01:01:06.584Z,8.10
2023-03-24T01:03:34.209Z,11.27
2023-03-24T01:06:03.202Z,14.07
2023-03-24T01:08:31.129Z,8.02
2023-03-24T01:11:01.221Z,6.90
2023-03-24T01:13:29.080Z,3.25
2023-03-24T01:15:55.787Z,3.50
2023-03-24T01:18:25.297Z,6.13
2023-03-24T01:20:51.855Z,9.75
2023-03-24T01:23:23.147Z,3.28
2023-03-24T01:25:50.334Z,13.18
2023-03-24T01:28:23.316Z,3.05
2023-03-24T01:30:49.867Z,7.05
2023-03-24T01:33:16.497Z,3.42
2023-03-24T01:35:43.085Z,5.50
2023-03-24T01:38:11.032Z,4.75
2023-03-24T01:40:39.532Z,6.00
2023-03-24T01:43:07.298Z,3.00
2023-03-24T01:45:40.186Z,4.60
2023-03-24T01:48:07.220Z,5.07
2023-03-24T01:50:33.821Z,3.78
2023-03-24T01:53:01.154Z,3.20
2023-03-24T01:55:27.749Z,4.60
2023-03-24T01:57:56.807Z,4.97
2023-03-24T02:00:24.013Z,6.10
2023-03-24T02:02:58.647Z,3.15
2023-03-24T02:05:27.917Z,5.10
2023-03-24T02:08:08.494Z,3.80
2023-03-24T02:10:35.880Z,3.45
2023-03-24T02:13:04.476Z,4.18
2023-03-24T02:15:31.622Z,3.75
2023-03-24T02:18:18.501Z,3.92
2023-03-24T02:21:06.243Z,6.53
2023-03-24T02:24:03.465Z,5.57
2023-03-24T02:26:51.626Z,3.58
2023-03-24T02:29:52.485Z,3.53
2023-03-24T02:32:37.687Z,4.70
2023-03-24T02:35:29.163Z,4.97
2023-03-24T02:38:01.876Z,5.38
2023-03-24T02:43:28.202Z,5.65
2023-03-24T02:46:15.012Z,3.50
2023-03-24T02:48:51.567Z,6.88
2023-03-24T02:51:23.606Z,5.95
2023-03-24T02:53:59.099Z,5.38
2023-03-24T02:56:45.729Z,3.92
2023-03-24T02:59:23.603Z,4.47
2023-03-24T03:01:54.660Z,3.50
2023-03-24T03:04:33.816Z,8.80
2023-03-24T03:07:06.433Z,5.80
2023-03-24T03:09:32.986Z,3.92
2023-03-24T03:11:59.496Z,3.10
2023-03-24T03:14:34.149Z,4.00
2023-03-24T03:17:34.146Z,3.15
2023-03-24T03:20:08.167Z,6.55
2023-03-24T03:22:43.138Z,4.63
2023-03-24T03:25:10.872Z,5.15
2023-03-24T03:27:40.129Z,8.02
2023-03-24T03:30:09.196Z,6.55
2023-03-24T03:32:39.122Z,5.10
2023-03-24T03:35:13.781Z,4.55
2023-03-24T03:37:49.722Z,4.97
2023-03-24T03:40:33.138Z,7.65
2023-03-24T03:42:59.669Z,7.22
2023-03-24T03:45:26.316Z,6.70
2023-03-24T03:47:52.913Z,4.88
2023-03-24T03:50:19.588Z,5.53
2023-03-24T03:52:46.156Z,5.38
2023-03-24T03:55:12.720Z,8.32
2023-03-24T03:57:39.322Z,5.25
2023-03-24T04:00:08.224Z,3.88
2023-03-24T04:03:05.422Z,6.65
2023-03-24T04:05:53.792Z,9.02
2023-03-24T04:09:17.926Z,8.10
2023-03-24T04:11:50.152Z,3.92
2023-03-24T04:14:19.179Z,7.97
2023-03-24T04:16:57.664Z,9.70
2023-03-24T04:20:02.077Z,7.03
2023-03-24T04:22:38.339Z,5.13
2023-03-24T04:25:12.509Z,9.73
2023-03-24T04:28:03.711Z,6.15
2023-03-24T04:30:38.068Z,9.75
2023-03-24T04:33:25.114Z,6.72
2023-03-24T04:36:06.324Z,5.35
2023-03-24T04:38:35.542Z,5.43
2023-03-24T04:41:02.202Z,5.63
2023-03-24T04:43:29.215Z,6.68
2023-03-24T04:45:57.803Z,6.63
2023-03-24T04:48:25.157Z,6.47
2023-03-24T04:50:58.874Z,8.18
2023-03-24T04:53:25.457Z,16.10
2023-03-24T04:56:01.025Z,7.30
2023-03-24T04:58:27.625Z,7.43
2023-03-24T05:00:56.514Z,5.68
2023-03-24T05:03:23.143Z,6.03
2023-03-24T05:05:50.175Z,6.60
2023-03-24T05:08:16.975Z,6.65
2023-03-24T05:10:43.734Z,6.97
2023-03-24T05:13:10.678Z,6.05
2023-03-24T05:15:37.245Z,6.70
2023-03-24T05:18:05.006Z,6.47
2023-03-24T05:20:31.710Z,7.88
2023-03-24T05:22:58.249Z,7.65
2023-03-24T05:25:24.772Z,11.05
2023-03-24T05:27:51.337Z,10.68
2023-03-24T05:30:20.175Z,12.85
2023-03-24T05:32:47.424Z,9.00
2023-03-24T05:35:14.293Z,7.07
2023-03-24T05:37:40.845Z,9.27
2023-03-24T05:40:08.159Z,9.15
2023-03-24T05:42:34.637Z,11.95
2023-03-24T05:45:01.151Z,11.75
2023-03-24T05:47:27.747Z,10.20
2023-03-24T05:49:54.288Z,14.68
2023-03-24T05:52:20.901Z,13.65
2023-03-24T05:54:49.421Z,9.88
2023-03-24T05:57:16.317Z,6.95
2023-03-24T05:59:42.765Z,10.18
2023-03-24T06:02:09.362Z,12.13
2023-03-24T06:04:36.148Z,10.75
2023-03-24T06:07:02.940Z,12.80
2023-03-24T06:09:33.015Z,8.30
2023-03-24T06:11:59.825Z,8.77
2023-03-24T06:14:26.579Z,7.82
2023-03-24T06:16:53.175Z,8.32
2023-03-24T06:19:24.657Z,9.57
2023-03-24T06:21:51.139Z,11.88
2023-03-24T06:24:17.912Z,10.45
2023-03-24T06:26:50.008Z,6.85
2023-03-24T06:29:19.930Z,14.00
2023-03-24T06:31:47.963Z,7.40
2023-03-24T06:34:14.514Z,9.10
2023-03-24T06:36:41.068Z,8.50
2023-03-24T06:39:07.655Z,13.93
2023-03-24T06:41:34.470Z,8.60
2023-03-24T06:44:01.832Z,6.78
2023-03-24T06:46:28.345Z,8.50
2023-03-24T06:48:54.860Z,8.50
2023-03-24T06:51:21.592Z,7.00
2023-03-24T06:53:48.133Z,5.35
2023-03-24T06:56:19.824Z,9.07
2023-03-24T06:58:46.551Z,6.80
2023-03-24T07:01:13.081Z,9.02
2023-03-24T07:03:41.845Z,5.97
2023-03-24T07:06:09.651Z,5.45
2023-03-24T07:08:38.761Z,9.75
2023-03-24T07:11:07.010Z,6.25
2023-03-24T07:13:33.941Z,8.38
2023-03-24T07:16:00.576Z,6.15
2023-03-24T07:18:27.109Z,5.85
2023-03-24T07:20:53.683Z,5.82
2023-03-24T07:23:21.196Z,5.07
2023-03-24T07:25:47.794Z,5.95
2023-03-24T07:28:14.385Z,9.07
2023-03-24T07:30:41.343Z,6.47
2023-03-24T07:33:08.082Z,6.82
2023-03-24T07:35:35.365Z,6.05
2023-03-24T07:38:02.009Z,5.72
2023-03-24T07:40:29.974Z,6.63
2023-03-24T07:43:00.310Z,7.35
2023-03-24T07:45:28.414Z,9.93
2023-03-24T07:47:57.200Z,6.65
2023-03-24T07:50:23.899Z,6.28
2023-03-24T07:52:50.450Z,8.35
2023-03-24T07:55:17.020Z,6.20
2023-03-24T07:57:45.973Z,5.75
2023-03-24T08:00:17.784Z,5.47
2023-03-24T08:02:45.421Z,12.77
2023-03-24T08:05:14.516Z,6.55
2023-03-24T08:07:44.425Z,6.20
2023-03-24T08:10:13.781Z,7.72
2023-03-24T08:12:40.825Z,17.63
2023-03-24T08:15:07.692Z,6.55
2023-03-24T08:17:34.253Z,6.13
2023-03-24T08:20:03.987Z,6.00
2023-03-24T08:22:32.118Z,7.95
2023-03-24T08:24:58.582Z,13.23
2023-03-24T08:27:25.115Z,8.82
2023-03-24T08:29:51.628Z,10.70
2023-03-24T08:32:18.087Z,8.52
2023-03-24T08:34:44.626Z,9.02
2023-03-24T08:37:12.082Z,8.82
2023-03-24T08:39:38.608Z,10.52
2023-03-24T08:42:06.127Z,9.52
2023-03-24T08:44:33.049Z,7.90
2023-03-24T08:47:01.186Z,7.53
2023-03-24T08:49:27.780Z,6.70
2023-03-24T08:51:54.290Z,6.93
2023-03-24T08:54:23.566Z,6.88
2023-03-24T08:56:50.956Z,6.80
2023-03-24T08:59:17.637Z,7.40
2023-03-24T09:01:44.234Z,8.20
2023-03-24T09:04:10.940Z,5.85
2023-03-24T09:06:37.546Z,9.27
2023-03-24T09:09:04.039Z,9.82
2023-03-24T09:11:30.609Z,7.93
2023-03-24T09:13:57.138Z,9.35
2023-03-24T09:16:24.251Z,10.00
2023-03-24T09:18:51.141Z,6.30
2023-03-24T09:21:17.642Z,8.98
2023-03-24T09:23:44.386Z,8.40
2023-03-24T09:26:11.299Z,7.88
2023-03-24T09:28:37.803Z,12.48
2023-03-24T09:31:05.616Z,8.40
2023-03-24T09:33:34.213Z,6.63
2023-03-24T09:36:01.274Z,6.65
2023-03-24T09:38:28.179Z,6.57
2023-03-24T09:40:57.809Z,11.32
2023-03-24T09:43:37.713Z,8.23
2023-03-24T09:46:04.997Z,8.65
2023-03-24T09:48:52.086Z,7.35
2023-03-24T09:51:22.790Z,8.60
2023-03-24T09:53:56.893Z,6.25
2023-03-24T09:56:23.690Z,8.45
2023-03-24T09:58:53.569Z,7.50
2023-03-24T10:01:20.401Z,7.93
2023-03-24T10:03:47.107Z,6.30
2023-03-24T10:06:23.029Z,4.95
2023-03-24T10:09:03.752Z,5.10
2023-03-24T10:11:55.583Z,14.63
2023-03-24T10:14:43.217Z,6.25
2023-03-24T10:17:12.443Z,6.13
2023-03-24T10:19:44.800Z,5.10
2023-03-24T10:22:37.274Z,4.80
2023-03-24T10:25:19.269Z,5.57
2023-03-24T10:28:12.146Z,9.37
2023-03-24T10:30:43.013Z,4.35
2023-03-24T10:33:11.580Z,4.10
2023-03-24T10:36:08.223Z,4.05
2023-03-24T10:38:35.557Z,4.18
2023-03-24T10:41:02.068Z,4.10
2023-03-24T10:43:28.620Z,7.13
2023-03-24T10:45:56.523Z,3.90
2023-03-24T10:48:36.328Z,3.55
2023-03-24T10:51:02.887Z,4.20
2023-03-24T10:53:29.426Z,4.75
2023-03-24T10:55:56.156Z,3.72
2023-03-24T10:58:25.737Z,3.80
2023-03-24T11:00:52.487Z,3.67
2023-03-24T11:03:26.389Z,3.05
2023-03-24T11:05:58.329Z,2.72
2023-03-24T11:08:40.234Z,3.90
2023-03-24T11:11:30.939Z,2.83
2023-03-24T11:14:01.434Z,3.75
2023-03-24T11:16:29.905Z,3.95
2023-03-24T11:19:01.860Z,5.38
2023-03-24T11:21:29.410Z,4.75
2023-03-24T11:23:58.798Z,7.57
2023-03-24T11:26:35.766Z,6.53
2023-03-24T11:29:10.032Z,4.75
2023-03-24T11:31:39.323Z,4.75
2023-03-24T11:34:25.520Z,4.47
2023-03-24T11:36:58.219Z,5.28
2023-03-24T11:39:26.175Z,7.85
2023-03-24T11:42:01.888Z,5.03
2023-03-24T11:44:51.781Z,4.43
2023-03-24T11:47:30.574Z,7.95
2023-03-24T11:50:13.753Z,4.35
2023-03-24T11:52:46.732Z,4.60
2023-03-24T11:55:15.799Z,4.57
2023-03-24T11:57:51.602Z,4.25
2023-03-24T12:00:34.338Z,3.47
2023-03-24T12:04:15.942Z,3.70
2023-03-24T12:06:54.368Z,4.78
2023-03-24T12:09:32.828Z,3.20
2023-03-24T12:12:08.517Z,3.20
2023-03-24T12:14:51.133Z,3.55
2023-03-24T12:17:18.037Z,4.90
2023-03-24T12:19:50.831Z,3.22
2023-03-24T12:22:41.910Z,4.07
2023-03-24T12:25:20.426Z,2.47
2023-03-24T12:27:49.949Z,2.15
2023-03-24T12:30:34.962Z,4.50
2023-03-24T12:33:11.582Z,2.40
2023-03-24T12:36:00.881Z,3.67
2023-03-24T12:38:33.577Z,6.43
2023-03-24T12:41:04.905Z,2.58
2023-03-24T12:44:06.434Z,2.30
2023-03-24T12:52:01.483Z,2.42
2023-03-24T12:54:46.041Z,3.20
2023-03-24T12:57:14.340Z,2.28
2023-03-24T12:59:44.836Z,2.15
2023-03-24T13:02:34.275Z,2.05
2023-03-24T13:05:05.405Z,2.95
2023-03-24T13:07:39.123Z,4.78
2023-03-24T13:10:11.930Z,1.70
2023-03-24T13:12:50.891Z,4.00
2023-03-24T13:15:20.487Z,3.83
2023-03-24T13:18:10.011Z,4.07
2023-03-24T13:20:56.347Z,4.07
2023-03-24T13:23:58.433Z,2.78
2023-03-24T13:26:30.659Z,4.57
2023-03-24T13:29:10.769Z,8.65
2023-03-24T13:31:51.094Z,3.60
2023-03-24T13:34:41.082Z,2.10
2023-03-24T13:37:41.289Z,3.13
2023-03-24T13:40:30.038Z,3.60
2023-03-24T13:43:00.549Z,2.25
2023-03-24T13:45:30.596Z,6.97
2023-03-24T13:48:16.046Z,2.47
2023-03-24T13:50:54.502Z,4.50
2023-03-24T13:53:32.809Z,1.67
2023-03-24T13:56:00.646Z,5.70
2023-03-24T13:58:28.410Z,2.17
2023-03-24T14:01:10.976Z,1.85
2023-03-24T14:03:45.326Z,3.35
2023-03-24T14:06:16.658Z,1.30
2023-03-24T14:08:52.277Z,0.80
2023-03-24T14:11:34.269Z,1.65
2023-03-24T14:14:07.061Z,1.60
2023-03-24T14:19:41.752Z,1.88
2023-03-24T14:22:16.678Z,1.60
2023-03-24T14:24:46.276Z,1.20
2023-03-24T14:27:32.555Z,0.90
2023-03-24T14:30:11.394Z,1.77
2023-03-24T14:32:44.568Z,1.00
2023-03-24T14:35:32.136Z,1.70
2023-03-24T14:38:06.678Z,2.45
2023-03-24T14:40:40.979Z,3.53
2023-03-24T14:43:28.252Z,1.60
2023-03-24T14:45:59.849Z,2.25
2023-03-24T14:48:42.653Z,1.53
2023-03-24T14:53:39.580Z,0.98
2023-03-24T14:56:13.343Z,1.08
2023-03-24T14:58:39.830Z,1.35
2023-03-24T15:01:07.964Z,1.33
2023-03-24T15:03:55.443Z,1.05
2023-03-24T15:06:25.450Z,1.98
2023-03-24T15:08:58.356Z,1.20
2023-03-24T15:11:27.232Z,1.63
2023-03-24T15:13:54.847Z,0.93
2023-03-24T15:16:23.971Z,1.98
2023-03-24T15:19:01.533Z,0.80
2023-03-24T15:21:46.709Z,1.77
2023-03-24T15:24:22.323Z,2.05
2023-03-24T15:26:55.978Z,1.55
2023-03-24T15:29:23.351Z,2.05
2023-03-24T15:31:49.961Z,1.33
2023-03-24T15:34:35.786Z,1.05
2023-03-24T15:37:05.321Z,0.82
2023-03-24T15:39:37.042Z,1.08
2023-03-24T15:42:15.832Z,1.10
2023-03-24T15:44:42.341Z,0.90
2023-03-24T15:47:25.919Z,2.58
2023-03-24T15:50:00.276Z,1.50
2023-03-24T15:52:28.044Z,0.60
2023-03-24T15:55:36.622Z,3.05
2023-03-24T15:58:27.856Z,2.08
2023-03-24T16:00:57.235Z,3.13
2023-03-24T16:03:27.007Z,0.60
2023-03-24T16:05:54.893Z,3.58
2023-03-24T16:08:35.846Z,1.08
2023-03-24T16:11:06.987Z,1.15
2023-03-24T16:13:33.756Z,0.82
2023-03-24T16:16:03.585Z,0.60
2023-03-24T16:18:34.296Z,0.85
2023-03-24T16:21:01.409Z,2.83
2023-03-24T16:23:28.382Z,0.68
2023-03-24T16:25:54.910Z,1.30
2023-03-24T16:28:22.047Z,1.65
2023-03-24T16:30:51.815Z,0.88
2023-03-24T16:33:20.713Z,1.45
2023-03-24T16:35:47.240Z,1.80
2023-03-24T16:38:14.123Z,0.63
2023-03-24T16:40:43.832Z,0.38
2023-03-24T16:43:10.345Z,0.40
2023-03-24T16:45:37.111Z,0.90
2023-03-24T16:48:03.707Z,0.40
2023-03-24T16:50:41.931Z,0.63
2023-03-24T16:53:08.902Z,0.60
2023-03-24T16:55:39.447Z,0.52
2023-03-24T16:58:06.401Z,11.45
2023-03-24T17:00:33.315Z,4.55
2023-03-24T17:02:59.989Z,1.13
2023-03-24T17:05:29.004Z,1.13
2023-03-24T17:07:56.123Z,1.27
2023-03-24T17:10:23.802Z,1.55
2023-03-24T17:12:50.621Z,1.75
2023-03-24T17:15:24.894Z,0.80
2023-03-24T17:17:51.936Z,2.83
2023-03-24T17:20:18.716Z,1.52
2023-03-24T17:22:46.373Z,1.02
2023-03-24T17:25:13.610Z,1.20
2023-03-24T17:27:40.248Z,1.42
2023-03-24T17:30:07.546Z,2.65
2023-03-24T17:32:34.296Z,1.05
2023-03-24T17:35:01.623Z,1.95
2023-03-24T17:37:31.522Z,1.20
2023-03-24T17:39:58.155Z,1.42
2023-03-24T17:42:25.959Z,5.68
2023-03-24T17:44:52.436Z,2.65
2023-03-24T17:47:19.197Z,2.72
2023-03-24T17:49:45.820Z,3.47
2023-03-24T17:52:12.308Z,3.47
2023-03-24T17:54:38.941Z,3.13
2023-03-24T17:57:05.746Z,1.60
2023-03-24T17:59:32.767Z,3.60
2023-03-24T18:01:59.339Z,1.77
2023-03-24T18:04:25.893Z,2.67
2023-03-24T18:06:52.415Z,7.68
2023-03-24T18:09:18.994Z,2.55
2023-03-24T18:11:47.699Z,3.58
2023-03-24T18:14:14.382Z,4.60
2023-03-24T18:16:40.998Z,4.75
2023-03-24T18:19:07.678Z,4.65
2023-03-24T18:21:34.412Z,5.32
2023-03-24T18:24:01.133Z,1.33
2023-03-24T18:26:27.921Z,1.27
2023-03-24T18:28:54.475Z,1.08
2023-03-24T18:31:21.774Z,1.30
2023-03-24T18:33:48.732Z,1.45
2023-03-24T18:36:16.808Z,3.65
2023-03-24T18:38:43.613Z,2.22
2023-03-24T18:41:10.523Z,3.50
2023-03-24T18:43:39.356Z,7.57
2023-03-24T18:46:09.450Z,2.90
2023-03-24T18:48:37.116Z,2.33
2023-03-24T18:51:03.950Z,1.58
2023-03-24T18:53:30.656Z,2.40
2023-03-24T18:55:57.234Z,1.95
2023-03-24T18:58:23.949Z,2.20
2023-03-24T19:00:52.074Z,0.90
2023-03-24T19:03:19.353Z,1.50
2023-03-24T19:05:46.856Z,1.15
2023-03-24T19:08:15.032Z,1.25
2023-03-24T19:10:42.878Z,2.40
2023-03-24T19:13:13.355Z,1.15
2023-03-24T19:15:40.063Z,3.90
2023-03-24T19:18:06.644Z,2.88
2023-03-24T19:20:35.020Z,1.20
2023-03-24T19:23:02.012Z,1.33
2023-03-24T19:25:28.518Z,1.30
2023-03-24T19:27:55.063Z,0.82
2023-03-24T19:30:21.607Z,1.30
2023-03-24T19:32:48.299Z,1.75
2023-03-24T19:35:14.917Z,3.70
2023-03-24T19:37:41.480Z,2.20
2023-03-24T19:40:11.912Z,1.17
2023-03-24T19:42:41.987Z,1.48
2023-03-24T19:45:12.976Z,2.15
2023-03-24T19:47:39.524Z,2.05
2023-03-24T19:50:07.499Z,3.78
2023-03-24T19:52:34.350Z,1.85
2023-03-24T19:55:00.902Z,3.92
2023-03-24T19:57:30.448Z,1.73
2023-03-24T19:59:57.401Z,4.57
2023-03-24T20:02:24.676Z,3.28
2023-03-24T20:04:52.007Z,4.03
2023-03-24T20:07:18.676Z,2.63
2023-03-24T20:09:45.343Z,2.72
2023-03-24T20:12:11.933Z,2.58
2023-03-24T20:14:38.442Z,2.72
2023-03-24T20:17:05.287Z,2.25
2023-03-24T20:19:31.905Z,2.03
2023-03-24T20:21:58.354Z,6.28
2023-03-24T20:24:24.906Z,3.28
2023-03-24T20:26:51.604Z,4.68
2023-03-24T20:29:18.200Z,4.43
2023-03-24T20:31:45.201Z,6.20
2023-03-24T20:34:11.930Z,4.10
2023-03-24T20:36:38.713Z,9.15
2023-03-24T20:39:05.819Z,2.63
2023-03-24T20:41:32.942Z,2.28
2023-03-24T20:43:59.472Z,1.58
2023-03-24T20:46:25.983Z,5.32
2023-03-24T20:48:52.669Z,3.42
2023-03-24T20:51:19.217Z,4.95
2023-03-24T20:53:49.764Z,2.55
2023-03-24T20:56:16.844Z,2.38
2023-03-24T20:58:44.473Z,2.88
2023-03-24T21:01:22.392Z,3.60
2023-03-24T21:03:50.138Z,3.25
2023-03-24T21:06:16.871Z,2.45
2023-03-24T21:08:45.237Z,4.35
2023-03-24T21:11:11.962Z,2.15
2023-03-24T21:13:38.453Z,2.15
2023-03-24T21:16:08.105Z,2.40
2023-03-24T21:18:35.903Z,5.07
2023-03-24T21:21:05.172Z,1.58
2023-03-24T21:23:34.413Z,2.85
2023-03-24T21:26:02.722Z,3.80
2023-03-24T21:28:30.760Z,2.63
2023-03-24T21:31:07.236Z,3.85
2023-03-24T21:33:33.807Z,1.63
2023-03-24T21:36:00.403Z,2.45
2023-03-24T21:38:27.082Z,2.95
2023-03-24T21:41:00.344Z,2.17
2023-03-24T21:43:29.142Z,4.30
2023-03-24T21:45:58.803Z,2.55
2023-03-24T21:48:26.612Z,2.75
2023-03-24T21:50:53.814Z,3.58
2023-03-24T21:53:20.970Z,4.43
2023-03-24T21:55:55.623Z,1.60
2023-03-24T21:58:22.680Z,1.65
2023-03-24T22:00:49.588Z,2.47
2023-03-24T22:03:16.670Z,1.80
2023-03-24T22:05:44.125Z,2.20
2023-03-24T22:08:12.086Z,1.95
2023-03-24T22:10:42.411Z,6.65
2023-03-24T22:13:10.245Z,3.58
2023-03-24T22:15:36.929Z,1.38
2023-03-24T22:18:03.747Z,3.92
2023-03-24T22:20:31.902Z,1.77
2023-03-24T22:22:58.514Z,3.08
2023-03-24T22:25:25.127Z,1.48
2023-03-24T22:27:52.830Z,1.67
2023-03-24T22:30:19.583Z,1.50
2023-03-24T22:32:46.230Z,1.52
2023-03-24T22:35:12.735Z,3.33
2023-03-24T22:37:39.206Z,1.27
2023-03-24T22:40:07.338Z,2.53
2023-03-24T22:42:33.788Z,1.60
2023-03-24T22:45:00.515Z,1.63
2023-03-24T22:47:28.834Z,2.55
2023-03-24T22:49:55.386Z,5.65
2023-03-24T22:52:21.903Z,1.60
2023-03-24T22:54:48.551Z,1.55
2023-03-24T22:57:16.407Z,1.42
2023-03-24T22:59:42.909Z,2.05
2023-03-24T23:02:10.508Z,1.52
2023-03-24T23:04:37.449Z,1.88
2023-03-24T23:07:06.149Z,4.88
2023-03-24T23:09:32.934Z,2.60
2023-03-24T23:11:59.616Z,1.92
2023-03-24T23:14:26.381Z,1.33
2023-03-24T23:16:54.380Z,1.25
2023-03-24T23:19:20.859Z,2.55
2023-03-24T23:21:47.349Z,3.22
2023-03-24T23:24:13.876Z,3.50
2023-03-24T23:26:40.356Z,1.35
2023-03-24T23:29:06.880Z,4.32
2023-03-24T23:31:35.603Z,2.38
2023-03-24T23:34:04.340Z,1.35
2023-03-24T23:36:34.038Z,3.53
2023-03-24T23:39:00.546Z,2.67
2023-03-24T23:41:27.024Z,3.97
2023-03-24T23:43:53.601Z,1.63
2023-03-24T23:46:20.191Z,1.30
2023-03-24T23:48:46.788Z,2.38
2023-03-24T23:51:13.263Z,2.20
2023-03-24T23:53:39.844Z,5.45
2023-03-24T23:56:07.411Z,1.73
2023-03-24T23:58:35.647Z,2.58
